Time;durP1;ratioP1;P1;durP2;ratioP2;P2;SDS_P1;SDS_P2;PMS_P1;PMS_P2;Temp;Humidity;BMP_temperature;BMP_pressure;BME280_temperature;BME280_humidity;BME280_pressure;Samples;Min_cycle;Max_cycle;Signal;HPM_P1;HPM_P2
2022/08/04 00:01:06;;;;;;;0.82;0.57;;;23.70;99.70;;;;;;4409079;32;20082;-73
2022/08/04 00:04:01;;;;;;;0.32;0.32;;;23.60;99.90;;;;;;4410249;32;20066;-73
2022/08/04 00:06:48;;;;;;;0.93;0.70;;;23.50;99.90;;;;;;4409785;32;20135;-73
2022/08/04 00:09:38;;;;;;;0.40;0.40;;;23.50;99.90;;;;;;4409857;32;20102;-73
2022/08/04 00:12:06;;;;;;;0.57;0.57;;;23.50;99.90;;;;;;4409964;32;20078;-73
2022/08/04 00:14:34;;;;;;;0.60;0.60;;;23.40;99.90;;;;;;4411130;32;20074;-73
2022/08/04 00:17:05;;;;;;;0.60;0.50;;;23.40;99.90;;;;;;4410289;32;20082;-73
2022/08/04 00:19:38;;;;;;;4.25;1.12;;;23.40;99.90;;;;;;4409991;32;20067;-73
2022/08/04 00:22:08;;;;;;;0.60;0.60;;;23.50;99.90;;;;;;4411162;32;20070;-73
2022/08/04 00:24:34;;;;;;;0.60;0.60;;;23.50;99.90;;;;;;4411704;32;20093;-73
2022/08/04 00:27:01;;;;;;;0.47;0.47;;;23.60;99.90;;;;;;4410671;32;20058;-73
2022/08/04 00:29:27;;;;;;;0.60;0.60;;;23.50;99.90;;;;;;4410362;32;20129;-73
2022/08/04 00:31:54;;;;;;;1.92;0.82;;;23.50;99.90;;;;;;4410139;32;20066;-73
2022/08/04 00:34:22;;;;;;;6.28;0.57;;;23.40;99.90;;;;;;4410705;32;20074;-73
2022/08/04 00:36:48;;;;;;;0.90;0.62;;;23.40;99.90;;;;;;4410025;32;20082;-73
2022/08/04 00:39:16;;;;;;;1.65;0.95;;;23.50;99.90;;;;;;4410436;32;20166;-73
2022/08/04 00:42:15;;;;;;;0.50;0.50;;;23.50;99.90;;;;;;4410057;32;20422;-73
2022/08/04 00:45:01;;;;;;;0.57;0.57;;;23.50;99.90;;;;;;4409069;32;20513;-73
2022/08/04 00:47:55;;;;;;;0.52;0.52;;;23.60;99.90;;;;;;4395047;32;20063;-73
2022/08/04 00:50:37;;;;;;;2.70;1.40;;;23.60;99.90;;;;;;4394284;32;20078;-73
2022/08/04 00:53:30;;;;;;;1.85;0.90;;;23.50;99.90;;;;;;4393779;32;20094;-73
2022/08/04 00:56:24;;;;;;;0.50;0.50;;;23.50;99.90;;;;;;4394235;32;20126;-73
2022/08/04 00:59:01;;;;;;;0.30;0.30;;;23.40;99.90;;;;;;4394339;32;20090;-73
2022/08/04 01:01:52;;;;;;;1.20;0.85;;;23.30;99.90;;;;;;4406277;32;20108;-73
2022/08/04 01:04:40;;;;;;;0.93;0.73;;;23.20;99.90;;;;;;4409073;32;20077;-73
2022/08/04 01:07:13;;;;;;;2.10;0.77;;;23.20;99.90;;;;;;4409249;32;20063;-73
2022/08/04 01:09:54;;;;;;;3.30;0.50;;;23.20;99.90;;;;;;4409353;32;20090;-73
2022/08/04 01:12:39;;;;;;;3.97;1.15;;;23.20;99.90;;;;;;4410870;32;20100;-73
2022/08/04 01:15:11;;;;;;;0.52;0.52;;;23.20;99.90;;;;;;4408750;32;20526;-73
2022/08/04 01:17:48;;;;;;;0.40;0.40;;;23.30;99.90;;;;;;4409778;32;20125;-73
2022/08/04 01:20:23;;;;;;;1.23;1.08;;;23.20;99.90;;;;;;4409761;32;20062;-73
2022/08/04 01:23:11;;;;;;;0.88;0.52;;;23.20;99.90;;;;;;4411123;32;20062;-73
2022/08/04 01:26:16;;;;;;;1.65;0.70;;;23.20;99.90;;;;;;4410000;32;20147;-73
2022/08/04 01:29:03;;;;;;;0.32;0.32;;;23.20;99.90;;;;;;4407883;32;20518;-73
2022/08/04 01:31:49;;;;;;;0.65;0.65;;;23.20;99.90;;;;;;4405259;32;20066;-73
2022/08/04 01:34:18;;;;;;;1.48;0.65;;;23.00;99.90;;;;;;4393410;32;20066;-73
2022/08/04 01:36:51;;;;;;;0.73;0.68;;;22.90;99.90;;;;;;4394629;32;20137;-73
2022/08/04 01:39:51;;;;;;;1.40;0.57;;;22.90;99.90;;;;;;4394161;32;20070;-73
2022/08/04 01:42:05;;;;;;;0.43;0.40;;;22.90;99.90;;;;;;4393814;32;20095;-73
2022/08/04 01:44:34;;;;;;;0.43;0.43;;;22.90;99.90;;;;;;4394388;32;20086;-73
2022/08/04 01:47:01;;;;;;;0.57;0.55;;;22.80;99.90;;;;;;4407226;32;20061;-73
2022/08/04 01:49:29;;;;;;;0.40;0.40;;;22.90;99.90;;;;;;4408402;32;20066;-72
2022/08/04 01:51:56;;;;;;;2.00;0.50;;;22.90;99.90;;;;;;4409147;32;20079;-73
2022/08/04 01:54:22;;;;;;;0.43;0.43;;;22.80;99.90;;;;;;4409297;32;20082;-73
2022/08/04 01:56:49;;;;;;;0.32;0.32;;;22.80;99.90;;;;;;4409273;32;20078;-73
2022/08/04 01:59:18;;;;;;;1.33;0.88;;;22.70;99.90;;;;;;4409539;32;20074;-72
2022/08/04 02:01:43;;;;;;;2.87;0.60;;;22.70;99.90;;;;;;4407900;32;20070;-72
2022/08/04 02:04:14;;;;;;;0.30;0.30;;;22.60;99.90;;;;;;4409073;32;20112;-72
2022/08/04 02:06:56;;;;;;;0.20;0.20;;;22.50;99.90;;;;;;4408876;32;20493;-72
2022/08/04 02:09:44;;;;;;;0.80;0.80;;;22.60;99.90;;;;;;4408677;32;20169;-72
2022/08/04 02:12:30;;;;;;;0.50;0.45;;;22.70;99.90;;;;;;4408301;32;20069;-72
2022/08/04 02:15:01;;;;;;;0.22;0.22;;;22.70;99.90;;;;;;4408554;32;20090;-72
2022/08/04 02:17:35;;;;;;;0.93;0.73;;;22.70;99.90;;;;;;4408244;32;20089;-72
2022/08/04 02:20:07;;;;;;;0.80;0.80;;;22.50;99.90;;;;;;4407965;32;20576;-72
2022/08/04 02:22:38;;;;;;;0.60;0.60;;;22.60;99.90;;;;;;4408460;32;20070;-72
2022/08/04 02:25:06;;;;;;;0.60;0.60;;;22.50;99.90;;;;;;4408113;32;20082;-72
2022/08/04 02:27:48;;;;;;;2.33;0.88;;;22.50;99.90;;;;;;4408127;32;20078;-72
2022/08/04 02:30:14;;;;;;;1.02;0.82;;;22.40;99.90;;;;;;4408351;32;20074;-72
2022/08/04 02:32:42;;;;;;;3.83;1.48;;;22.50;99.90;;;;;;4407613;32;20089;-72
2022/08/04 02:35:14;;;;;;;0.60;0.60;;;22.50;99.90;;;;;;4408549;32;20109;-72
2022/08/04 02:37:46;;;;;;;7.12;1.75;;;22.50;99.90;;;;;;4408475;32;20078;-72
2022/08/04 02:40:15;;;;;;;0.40;0.40;;;22.40;99.90;;;;;;4409031;32;20084;-72
2022/08/04 02:42:42;;;;;;;0.45;0.45;;;22.30;99.90;;;;;;4412211;32;20122;-72
2022/08/04 02:45:09;;;;;;;0.90;0.62;;;22.10;99.90;;;;;;4409604;32;20070;-72
2022/08/04 02:47:35;;;;;;;0.50;0.50;;;21.90;99.90;;;;;;4410131;32;20584;-72
2022/08/04 02:50:01;;;;;;;0.88;0.85;;;22.00;99.90;;;;;;4409614;32;20093;-72
2022/08/04 02:52:28;;;;;;;0.68;0.52;;;22.10;99.90;;;;;;4410715;32;20074;-72
2022/08/04 02:55:00;;;;;;;0.50;0.50;;;22.20;99.90;;;;;;4410647;32;20067;-72
2022/08/04 02:57:28;;;;;;;0.80;0.77;;;22.20;99.90;;;;;;4409686;32;20065;-72
2022/08/04 03:00:10;;;;;;;5.37;1.23;;;22.20;99.90;;;;;;4410322;32;20073;-72
2022/08/04 03:03:00;;;;;;;2.78;1.27;;;22.30;99.90;;;;;;4409242;32;20083;-72
2022/08/04 03:06:03;;;;;;;2.10;1.35;;;22.20;99.90;;;;;;4408605;32;20078;-72
2022/08/04 03:08:47;;;;;;;3.33;0.90;;;22.20;99.90;;;;;;4409277;32;20066;-72
2022/08/04 03:11:29;;;;;;;4.10;0.98;;;22.00;99.90;;;;;;4410275;32;20098;-72
2022/08/04 03:14:05;;;;;;;0.77;0.77;;;21.90;99.90;;;;;;4409377;32;20079;-73
2022/08/04 03:17:03;;;;;;;1.35;0.70;;;21.90;99.90;;;;;;4409728;32;20074;-73
2022/08/04 03:19:53;;;;;;;1.92;0.77;;;21.70;99.90;;;;;;4408862;32;20151;-73
2022/08/04 03:22:38;;;;;;;0.77;0.40;;;21.50;99.90;;;;;;4409479;32;20091;-73
2022/08/04 03:25:34;;;;;;;0.62;0.60;;;21.60;99.90;;;;;;4409970;32;20098;-73
2022/08/04 03:28:39;;;;;;;2.70;0.57;;;21.60;99.90;;;;;;4408606;32;20070;-73
2022/08/04 03:31:34;;;;;;;0.50;0.50;;;21.70;99.90;;;;;;4408705;32;20079;-73
2022/08/04 03:34:38;;;;;;;2.42;0.85;;;21.80;99.90;;;;;;4403932;32;20069;-73
2022/08/04 03:37:37;;;;;;;0.50;0.50;;;21.70;99.90;;;;;;4393681;32;20073;-73
2022/08/04 03:40:33;;;;;;;0.62;0.62;;;21.70;99.90;;;;;;4393736;32;20094;-73
2022/08/04 03:43:38;;;;;;;0.43;0.43;;;21.70;99.90;;;;;;4394134;32;20078;-73
2022/08/04 03:46:34;;;;;;;0.90;0.82;;;21.60;99.90;;;;;;4401667;32;20073;-73
2022/08/04 03:49:35;;;;;;;2.85;0.60;;;21.40;99.90;;;;;;4409510;32;20089;-73
2022/08/04 03:53:16;;;;;;;10.90;0.93;;;21.60;99.90;;;;;;4409205;32;20079;-72
2022/08/04 03:55:29;;;;;;;0.82;0.70;;;21.70;99.90;;;;;;4409125;32;20162;-72
2022/08/04 03:58:22;;;;;;;0.80;0.55;;;21.80;99.90;;;;;;4403500;32;20092;-72
2022/08/04 04:01:09;;;;;;;0.62;0.57;;;21.80;99.90;;;;;;4393438;32;20070;-72
2022/08/04 04:03:49;;;;;;;6.07;2.80;;;21.70;99.90;;;;;;4407694;32;20069;-72
2022/08/04 04:06:35;;;;;;;;;;;21.80;99.90;;;;;;4410145;32;20070;-72
2022/08/04 04:09:40;;;;;;;1.85;0.77;;;21.90;99.90;;;;;;4409150;32;19949;-72
2022/08/04 04:12:34;;;;;;;1.52;1.00;;;21.90;99.90;;;;;;4409108;32;20059;-72
2022/08/04 04:15:30;;;;;;;1.30;0.80;;;21.90;99.90;;;;;;4409146;32;20066;-72
2022/08/04 04:18:14;;;;;;;0.93;0.55;;;21.70;99.90;;;;;;4410561;32;20050;-72
2022/08/04 04:21:16;;;;;;;0.98;0.85;;;21.70;99.90;;;;;;4410186;32;20507;-72
2022/08/04 04:23:51;;;;;;;0.60;0.60;;;21.60;99.90;;;;;;4410146;32;20070;-73
2022/08/04 04:26:46;;;;;;;1.15;0.77;;;21.60;99.90;;;;;;4410376;32;20066;-73
2022/08/04 04:29:43;;;;;;;1.23;0.93;;;21.70;99.90;;;;;;4409015;32;20090;-73
2022/08/04 04:32:37;;;;;;;4.95;1.98;;;21.80;99.90;;;;;;4408695;32;20058;-73
2022/08/04 04:35:31;;;;;;;2.87;1.48;;;21.80;99.90;;;;;;4394714;32;20094;-73
2022/08/04 04:38:14;;;;;;;3.60;1.90;;;21.90;99.90;;;;;;4394538;32;20094;-73
2022/08/04 04:41:00;;;;;;;0.85;0.70;;;21.90;99.90;;;;;;4394883;32;20062;-73
2022/08/04 04:43:45;;;;;;;2.58;1.20;;;21.90;99.90;;;;;;4394053;32;20075;-73
2022/08/04 04:46:21;;;;;;;0.85;0.65;;;22.00;99.90;;;;;;4401794;32;20075;-73
2022/08/04 04:48:56;;;;;;;0.60;0.60;;;22.10;99.90;;;;;;4395019;32;20371;-73
2022/08/04 04:51:30;;;;;;;0.60;0.57;;;22.20;99.90;;;;;;4392716;32;85508;-73
2022/08/04 04:54:22;;;;;;;0.45;0.45;;;22.30;99.90;;;;;;4403926;32;20109;-73
2022/08/04 04:56:59;;;;;;;0.62;0.62;;;22.40;99.90;;;;;;4408861;32;20082;-73
2022/08/04 04:59:31;;;;;;;3.97;0.65;;;22.40;99.90;;;;;;4408234;32;20065;-73
2022/08/04 05:02:18;;;;;;;0.60;0.60;;;22.50;99.90;;;;;;4408487;32;20116;-73
2022/08/04 05:05:02;;;;;;;2.10;0.70;;;22.50;99.90;;;;;;4408008;32;20078;-73
2022/08/04 05:07:57;;;;;;;2.37;1.27;;;22.50;99.90;;;;;;4409731;32;20102;-73
2022/08/04 05:10:29;;;;;;;1.60;0.88;;;22.50;99.90;;;;;;4409465;32;20141;-73
2022/08/04 05:13:34;;;;;;;0.90;0.62;;;22.60;99.90;;;;;;4409589;32;20113;-73
2022/08/04 05:16:24;;;;;;;0.40;0.40;;;22.60;99.90;;;;;;4401262;32;20124;-73
2022/08/04 05:19:11;;;;;;;0.95;0.90;;;22.70;99.90;;;;;;4409318;32;20093;-72
2022/08/04 05:22:16;;;;;;;0.45;0.45;;;22.70;99.90;;;;;;4410955;32;20087;-72
2022/08/04 05:24:44;;;;;;;1.12;0.82;;;22.70;99.90;;;;;;4408696;32;20097;-73
2022/08/04 05:27:17;;;;;;;1.00;0.80;;;22.80;99.90;;;;;;4409412;32;20070;-73
2022/08/04 05:29:50;;;;;;;0.60;0.60;;;22.90;99.90;;;;;;4409099;32;20029;-73
2022/08/04 05:32:18;;;;;;;0.28;0.28;;;23.20;99.90;;;;;;4409466;32;20062;-73
2022/08/04 05:34:54;;;;;;;19.83;1.33;;;23.30;99.90;;;;;;4395005;32;20083;-73
2022/08/04 05:37:22;;;;;;;5.57;0.90;;;23.30;99.90;;;;;;4394636;32;20078;-73
2022/08/04 05:39:54;;;;;;;0.80;0.80;;;23.40;99.90;;;;;;4394607;32;20078;-72
2022/08/04 05:42:21;;;;;;;0.62;0.62;;;23.40;99.90;;;;;;4400620;32;20086;-72
2022/08/04 05:44:47;;;;;;;0.45;0.45;;;23.60;99.90;;;;;;4409972;32;20086;-72
2022/08/04 05:47:14;;;;;;;0.65;0.62;;;23.60;99.90;;;;;;4409232;32;20082;-72
2022/08/04 05:49:41;;;;;;;0.77;0.62;;;23.60;99.90;;;;;;4409465;32;20078;-73
2022/08/04 05:52:08;;;;;;;0.35;0.35;;;23.70;99.90;;;;;;4410181;32;20074;-73
2022/08/04 05:54:36;;;;;;;0.60;0.50;;;23.80;99.90;;;;;;4410090;32;20062;-73
2022/08/04 05:57:04;;;;;;;0.30;0.30;;;23.80;99.90;;;;;;4409762;32;20144;-73
2022/08/04 05:59:30;;;;;;;2.67;0.60;;;23.80;99.90;;;;;;4409893;32;20085;-73
2022/08/04 06:01:58;;;;;;;0.25;0.25;;;23.90;99.90;;;;;;4409816;32;20082;-73
2022/08/04 06:04:30;;;;;;;4.20;0.60;;;24.00;99.90;;;;;;4401679;32;20122;-72
2022/08/04 06:06:55;;;;;;;0.62;0.62;;;24.20;99.90;;;;;;4394464;32;20083;-73
2022/08/04 06:09:21;;;;;;;0.57;0.50;;;24.20;99.90;;;;;;4395049;32;20070;-73
2022/08/04 06:11:49;;;;;;;0.30;0.30;;;24.20;99.90;;;;;;4394731;32;20075;-73
2022/08/04 06:14:15;;;;;;;0.68;0.68;;;24.30;99.90;;;;;;4394111;32;20091;-73
2022/08/04 06:16:43;;;;;;;0.20;0.20;;;24.50;99.90;;;;;;4396202;32;20083;-73
2022/08/04 06:19:11;;;;;;;0.35;0.35;;;24.50;99.80;;;;;;4396539;32;20066;-73
2022/08/04 06:21:40;;;;;;;0.47;0.47;;;24.60;99.80;;;;;;4396281;32;20082;-73
2022/08/04 06:24:10;;;;;;;0.40;0.40;;;24.70;99.50;;;;;;4396610;32;20570;-73
2022/08/04 06:26:36;;;;;;;0.97;0.47;;;24.80;99.10;;;;;;4396339;32;20074;-73
2022/08/04 06:29:03;;;;;;;1.33;0.70;;;24.90;98.90;;;;;;4396677;32;20155;-73
2022/08/04 06:31:42;;;;;;;0.30;0.30;;;25.00;99.00;;;;;;4396899;32;20126;-73
2022/08/04 06:34:09;;;;;;;1.23;0.28;;;25.10;99.10;;;;;;4397616;32;20089;-73
2022/08/04 06:36:36;;;;;;;0.82;0.80;;;25.20;98.70;;;;;;4397386;32;20039;-73
2022/08/04 06:39:04;;;;;;;0.40;0.40;;;25.20;98.60;;;;;;4396730;32;20066;-73
2022/08/04 06:41:31;;;;;;;0.40;0.40;;;25.30;98.60;;;;;;4396499;32;20066;-73
2022/08/04 06:44:01;;;;;;;0.20;0.20;;;25.40;98.00;;;;;;4397328;32;20087;-73
2022/08/04 06:46:27;;;;;;;0.55;0.55;;;25.50;97.80;;;;;;4405306;32;20078;-73
2022/08/04 06:48:53;;;;;;;0.22;0.22;;;25.60;97.20;;;;;;4411014;32;20070;-73
2022/08/04 06:51:20;;;;;;;0.30;0.30;;;25.60;96.90;;;;;;4410745;32;20069;-73
2022/08/04 06:53:47;;;;;;;0.85;0.40;;;25.70;96.50;;;;;;4411201;32;20074;-73
2022/08/04 06:56:14;;;;;;;0.90;0.80;;;25.70;95.80;;;;;;4410972;32;20145;-73
2022/08/04 06:58:41;;;;;;;1.55;0.30;;;25.80;95.80;;;;;;4410934;32;20098;-73
2022/08/04 07:01:07;;;;;;;2.45;0.90;;;25.90;95.80;;;;;;4410482;32;20065;-73
2022/08/04 07:03:33;;;;;;;0.57;0.40;;;26.00;95.00;;;;;;4410789;32;20082;-73
2022/08/04 07:05:59;;;;;;;0.37;0.37;;;26.10;95.20;;;;;;4410576;32;20067;-73
2022/08/04 07:08:26;;;;;;;0.47;0.47;;;26.10;95.00;;;;;;4410141;32;20065;-73
2022/08/04 07:10:52;;;;;;;1.48;0.40;;;26.20;94.70;;;;;;4410011;32;20069;-73
2022/08/04 07:13:19;;;;;;;0.52;0.52;;;26.20;94.80;;;;;;4409798;32;20062;-73
2022/08/04 07:15:47;;;;;;;0.50;0.50;;;26.30;94.20;;;;;;4410046;32;20497;-73
2022/08/04 07:18:12;;;;;;;0.20;0.20;;;26.40;94.30;;;;;;4410205;32;20446;-73
2022/08/04 07:20:42;;;;;;;0.37;0.37;;;26.50;94.60;;;;;;4410524;32;20074;-73
2022/08/04 07:23:10;;;;;;;0.52;0.50;;;26.60;94.20;;;;;;4410294;32;20066;-73
2022/08/04 07:25:35;;;;;;;2.33;0.55;;;26.60;94.00;;;;;;4411647;32;20070;-73
2022/08/04 07:28:01;;;;;;;0.20;0.20;;;26.80;93.90;;;;;;4409777;32;20087;-74
2022/08/04 07:30:29;;;;;;;0.55;0.40;;;26.90;93.70;;;;;;4411009;32;20517;-73
2022/08/04 07:32:55;;;;;;;1.12;0.50;;;27.00;93.60;;;;;;4410813;32;20062;-72
2022/08/04 07:35:21;;;;;;;0.47;0.37;;;27.10;93.30;;;;;;4410762;32;20125;-73
2022/08/04 07:37:47;;;;;;;0.35;0.35;;;27.30;92.70;;;;;;4409812;32;20082;-73
2022/08/04 07:40:13;;;;;;;0.22;0.22;;;27.40;92.70;;;;;;4410103;32;20130;-73
2022/08/04 07:42:38;;;;;;;0.20;0.20;;;27.50;91.90;;;;;;4410305;32;20086;-73
2022/08/04 07:45:05;;;;;;;0.40;0.40;;;27.70;91.80;;;;;;4410140;32;20066;-73
2022/08/04 07:47:30;;;;;;;0.45;0.45;;;27.70;91.60;;;;;;4410447;32;20078;-73
2022/08/04 07:49:57;;;;;;;0.30;0.30;;;27.90;91.50;;;;;;4410497;32;20089;-73
2022/08/04 07:52:23;;;;;;;0.85;0.50;;;28.00;91.40;;;;;;4409725;32;20062;-73
2022/08/04 07:54:50;;;;;;;0.45;0.17;;;28.20;91.00;;;;;;4411208;32;20063;-73
2022/08/04 07:57:17;;;;;;;0.25;0.25;;;28.30;90.70;;;;;;4410853;32;20526;-74
2022/08/04 07:59:43;;;;;;;0.50;0.43;;;28.50;90.60;;;;;;4411139;32;20128;-73
2022/08/04 08:02:10;;;;;;;3.28;1.02;;;28.70;90.30;;;;;;4411887;32;20062;-73
2022/08/04 08:04:35;;;;;;;0.93;0.55;;;28.80;90.20;;;;;;4411498;32;20128;-73
2022/08/04 08:07:01;;;;;;;1.65;0.47;;;29.00;90.40;;;;;;4412435;32;20063;-73
2022/08/04 08:09:26;;;;;;;0.10;0.10;;;29.10;90.00;;;;;;4412274;32;20086;-73
2022/08/04 08:11:53;;;;;;;0.20;0.20;;;29.20;89.00;;;;;;4412456;32;20086;-73
2022/08/04 08:14:19;;;;;;;0.50;0.50;;;29.40;89.30;;;;;;4412328;32;20498;-73
2022/08/04 08:16:45;;;;;;;0.37;0.30;;;29.50;88.10;;;;;;4411109;32;20130;-73
2022/08/04 08:19:13;;;;;;;0.10;0.10;;;29.60;87.90;;;;;;4413452;32;20115;-73
2022/08/04 08:21:40;;;;;;;0.32;0.32;;;29.60;87.60;;;;;;4412104;32;20070;-73
2022/08/04 08:24:06;;;;;;;0.30;0.20;;;29.70;87.60;;;;;;4411889;32;20120;-73
2022/08/04 08:26:32;;;;;;;1.95;0.35;;;29.80;87.50;;;;;;4411131;32;20071;-73
2022/08/04 08:28:57;;;;;;;0.37;0.25;;;29.90;86.70;;;;;;4411959;32;20070;-73
2022/08/04 08:31:26;;;;;;;1.35;0.55;;;29.90;86.70;;;;;;4411177;32;20117;-73
2022/08/04 08:33:52;;;;;;;0.30;0.30;;;30.00;85.70;;;;;;4410823;32;20518;-73
2022/08/04 08:36:30;;;;;;;0.25;0.25;;;30.10;85.30;;;;;;4396344;32;20074;-73
2022/08/04 08:39:03;;;;;;;0.20;0.20;;;30.20;85.20;;;;;;4396103;32;20501;-73
2022/08/04 08:41:42;;;;;;;0.20;0.20;;;30.30;85.60;;;;;;4396705;32;20070;-73
2022/08/04 08:44:47;;;;;;;0.10;0.10;;;30.40;85.30;;;;;;4395481;32;20092;-73
2022/08/04 08:47:29;;;;;;;0.37;0.20;;;30.50;84.50;;;;;;4396474;32;20082;-73
2022/08/04 08:50:16;;;;;;;0.52;0.30;;;30.70;84.70;;;;;;4395948;32;20451;-73
2022/08/04 08:53:21;;;;;;;0.60;0.40;;;30.70;83.40;;;;;;4397093;32;20074;-73
2022/08/04 08:56:15;;;;;;;0.30;0.30;;;30.80;83.20;;;;;;4395130;32;20078;-73
2022/08/04 08:59:05;;;;;;;0.20;0.20;;;30.90;83.40;;;;;;4395535;32;20087;-73
2022/08/04 09:01:50;;;;;;;3.85;0.68;;;31.00;83.10;;;;;;4401692;32;20083;-73
2022/08/04 09:04:37;;;;;;;0.45;0.40;;;31.10;82.70;;;;;;4410372;32;20087;-73
2022/08/04 09:07:29;;;;;;;0.43;0.40;;;31.20;83.30;;;;;;4405831;32;20069;-73
2022/08/04 09:10:17;;;;;;;0.20;0.20;;;31.30;81.80;;;;;;4395717;32;20078;-74
2022/08/04 09:12:54;;;;;;;0.20;0.20;;;31.40;80.20;;;;;;4405628;32;20086;-74
2022/08/04 09:15:33;;;;;;;0.10;0.10;;;31.50;79.30;;;;;;4410537;32;20137;-74
2022/08/04 09:18:06;;;;;;;0.30;0.30;;;31.60;79.50;;;;;;4410214;32;20066;-73
2022/08/04 09:20:46;;;;;;;0.20;0.10;;;31.70;78.40;;;;;;4410589;32;20189;-73
2022/08/04 09:23:35;;;;;;;0.28;0.28;;;31.80;78.10;;;;;;4412041;32;20078;-74
2022/08/04 09:26:17;;;;;;;2.03;0.95;;;31.80;77.30;;;;;;4410861;32;20066;-73
2022/08/04 09:29:03;;;;;;;0.40;0.40;;;32.00;78.30;;;;;;4409706;32;20066;-74
2022/08/04 09:31:54;;;;;;;0.30;0.30;;;32.20;76.20;;;;;;4410486;32;20136;-73
2022/08/04 09:34:26;;;;;;;0.32;0.20;;;32.10;76.20;;;;;;4411470;32;20065;-73
2022/08/04 09:37:01;;;;;;;0.20;0.15;;;32.30;76.30;;;;;;4410804;32;20162;-74
2022/08/04 09:39:36;;;;;;;0.88;0.40;;;32.40;75.70;;;;;;4412054;32;20082;-73
2022/08/04 09:42:11;;;;;;;0.20;0.20;;;32.50;75.30;;;;;;4409515;32;20077;-73
2022/08/04 09:45:01;;;;;;;0.73;0.32;;;32.50;74.60;;;;;;4410646;32;20070;-73
2022/08/04 09:47:37;;;;;;;0.30;0.30;;;32.70;75.20;;;;;;4411107;32;20501;-73
2022/08/04 09:50:35;;;;;;;0.40;0.40;;;32.80;73.80;;;;;;4409711;32;20087;-73
2022/08/04 09:53:25;;;;;;;0.40;0.40;;;32.80;72.60;;;;;;4410332;32;20083;-73
2022/08/04 09:56:02;;;;;;;0.15;0.15;;;33.00;69.80;;;;;;4410440;32;20066;-73
2022/08/04 09:58:39;;;;;;;0.10;0.10;;;33.30;70.80;;;;;;4409206;32;20085;-73
2022/08/04 10:01:10;;;;;;;0.25;0.25;;;33.50;69.30;;;;;;4410595;32;20066;-73
2022/08/04 10:03:39;;;;;;;0.20;0.20;;;33.60;70.20;;;;;;4410055;32;20098;-73
2022/08/04 10:06:15;;;;;;;0.10;0.10;;;33.70;69.00;;;;;;4410696;32;20062;-73
2022/08/04 10:08:47;;;;;;;0.50;0.50;;;33.90;69.30;;;;;;4409715;32;20069;-73
2022/08/04 10:11:20;;;;;;;0.15;0.15;;;34.10;68.80;;;;;;4405881;32;20121;-73
2022/08/04 10:14:17;;;;;;;0.13;0.13;;;34.40;68.70;;;;;;4394793;32;20070;-73
2022/08/04 10:16:54;;;;;;;6.57;0.50;;;34.70;68.60;;;;;;4407057;32;20699;-73
2022/08/04 10:19:25;;;;;;;0.10;0.10;;;34.90;68.50;;;;;;4393708;32;20099;-72
2022/08/04 10:22:04;;;;;;;0.22;0.22;;;35.10;66.60;;;;;;4401256;32;20062;-72
2022/08/04 10:24:47;;;;;;;3.45;1.10;;;34.90;66.90;;;;;;4408726;32;20097;-71
2022/08/04 11:00:44;;;;;;;0.30;0.30;;;36.40;60.10;;;;;;4397499;32;20123;-72
2022/08/04 11:03:21;;;;;;;0.30;0.30;;;35.90;60.50;;;;;;4398139;32;20082;-72
2022/08/04 11:05:53;;;;;;;0.47;0.47;;;35.90;61.60;;;;;;4400026;32;20082;-72
2022/08/04 11:08:37;;;;;;;0.20;0.20;;;36.10;61.50;;;;;;4400543;32;20069;-72
2022/08/04 11:11:25;;;;;;;0.40;0.40;;;36.20;60.80;;;;;;4401046;32;20101;-72
2022/08/04 11:14:01;;;;;;;0.20;0.20;;;36.40;59.10;;;;;;4386754;32;20091;-72
2022/08/04 11:16:37;;;;;;;0.25;0.25;;;36.70;58.20;;;;;;4400247;32;20062;-73
2022/08/04 11:19:19;;;;;;;1.77;0.85;;;37.20;58.20;;;;;;4401471;32;20544;-73
2022/08/04 11:21:57;;;;;;;0.30;0.30;;;37.30;57.80;;;;;;4399929;32;20121;-73
2022/08/04 11:24:35;;;;;;;0.93;0.57;;;37.60;58.50;;;;;;4399840;32;20079;-73
2022/08/04 11:27:05;;;;;;;0.20;0.20;;;37.90;57.80;;;;;;4399541;32;20094;-74
2022/08/04 11:29:47;;;;;;;0.82;0.70;;;38.10;56.60;;;;;;4399986;32;20077;-74
2022/08/04 11:32:19;;;;;;;0.40;0.40;;;38.00;56.10;;;;;;4402003;32;20077;-74
2022/08/04 11:34:48;;;;;;;0.10;0.10;;;37.90;56.00;;;;;;4401360;32;20070;-74
2022/08/04 11:37:21;;;;;;;0.17;0.17;;;37.80;55.80;;;;;;4401325;32;20109;-74
2022/08/04 11:39:52;;;;;;;0.20;0.20;;;38.00;55.60;;;;;;4393205;32;20079;-74
2022/08/04 11:42:42;;;;;;;0.10;0.10;;;38.10;55.40;;;;;;4384702;32;20242;-74
2022/08/04 11:45:18;;;;;;;0.20;0.20;;;38.30;54.50;;;;;;4385815;32;20066;-72
2022/08/04 11:48:08;;;;;;;2.28;0.80;;;37.90;55.40;;;;;;4399875;32;20069;-74
2022/08/04 11:50:41;;;;;;;5.43;0.50;;;37.80;55.70;;;;;;4388459;32;20090;-74
2022/08/04 11:53:09;;;;;;;0.28;0.28;;;37.90;55.40;;;;;;4399974;32;20074;-74
2022/08/04 11:55:37;;;;;;;0.30;0.30;;;38.00;55.70;;;;;;4410850;32;20093;-74
2022/08/04 11:58:04;;;;;;;0.52;0.40;;;38.00;53.60;;;;;;4414997;32;20073;-73
2022/08/04 12:00:31;;;;;;;0.45;0.45;;;38.20;53.50;;;;;;4414853;32;20141;-73
2022/08/04 12:03:36;;;;;;;0.25;0.25;;;38.30;53.80;;;;;;4400826;32;20081;-73
2022/08/04 12:06:13;;;;;;;0.32;0.25;;;38.50;53.10;;;;;;4375060;32;20070;-73
2022/08/04 12:09:04;;;;;;;0.30;0.30;;;38.70;53.70;;;;;;4384916;32;20070;-72
2022/08/04 12:11:41;;;;;;;0.35;0.35;;;39.20;52.60;;;;;;4389402;32;20074;-73
2022/08/04 12:14:41;;;;;;;0.35;0.32;;;39.30;52.90;;;;;;4399205;32;20066;-73
2022/08/04 12:17:08;;;;;;;0.20;0.20;;;39.30;52.60;;;;;;4399370;32;20540;-73
2022/08/04 12:19:55;;;;;;;4.18;0.40;;;39.10;52.60;;;;;;4399480;32;20591;-73
2022/08/04 12:22:24;;;;;;;0.43;0.30;;;38.70;53.40;;;;;;4388208;32;20070;-73
2022/08/04 12:25:01;;;;;;;0.40;0.40;;;38.80;53.60;;;;;;4399302;32;20074;-73
2022/08/04 12:27:32;;;;;;;0.20;0.20;;;39.20;53.40;;;;;;4399513;32;20066;-74
2022/08/04 12:29:58;;;;;;;0.75;0.35;;;39.40;52.40;;;;;;4398963;32;20073;-74
2022/08/04 12:32:39;;;;;;;0.30;0.30;;;39.70;51.30;;;;;;4399873;32;20537;-73
2022/08/04 12:35:11;;;;;;;0.75;0.37;;;40.10;50.80;;;;;;4399826;32;20082;-73
2022/08/04 12:37:49;;;;;;;16.55;0.68;;;40.20;51.00;;;;;;4400425;32;20083;-73
2022/08/04 12:40:21;;;;;;;0.30;0.30;;;40.40;50.90;;;;;;4389839;32;20078;-73
2022/08/04 12:43:04;;;;;;;0.50;0.40;;;40.90;49.60;;;;;;4395261;32;20090;-73
2022/08/04 12:45:31;;;;;;;0.30;0.30;;;41.00;49.30;;;;;;4399018;32;20109;-73
2022/08/04 12:47:59;;;;;;;0.20;0.20;;;41.10;47.80;;;;;;4399874;32;20070;-74
2022/08/04 12:50:24;;;;;;;0.20;0.20;;;41.00;48.00;;;;;;4399247;32;20065;-73
2022/08/04 12:52:54;;;;;;;0.20;0.20;;;41.20;48.00;;;;;;4398876;32;20087;-73
2022/08/04 12:55:24;;;;;;;0.75;0.65;;;41.40;47.90;;;;;;4408335;32;20360;-75
2022/08/04 12:57:51;;;;;;;0.20;0.20;;;41.20;46.80;;;;;;4413892;32;20069;-73
2022/08/04 13:00:34;;;;;;;0.32;0.32;;;40.50;47.30;;;;;;4413916;32;20090;-73
2022/08/04 13:03:07;;;;;;;2.17;0.62;;;40.20;48.00;;;;;;4401384;32;20078;-73
2022/08/04 13:05:34;;;;;;;0.05;0.05;;;40.60;47.60;;;;;;4398910;32;20125;-73
2022/08/04 13:08:03;;;;;;;0.10;0.10;;;40.80;47.10;;;;;;4398598;32;20106;-73
2022/08/04 13:10:30;;;;;;;0.20;0.20;;;41.00;45.30;;;;;;4398999;32;20573;-73
2022/08/04 13:12:59;;;;;;;0.10;0.10;;;40.90;45.40;;;;;;4398591;32;20087;-73
2022/08/04 13:15:27;;;;;;;0.20;0.20;;;40.70;45.30;;;;;;4398864;32;20067;-73
2022/08/04 13:17:58;;;;;;;0.65;0.30;;;40.40;45.70;;;;;;4398227;32;20082;-73
2022/08/04 13:20:33;;;;;;;0.95;0.57;;;40.70;45.90;;;;;;4398569;32;20141;-73
2022/08/04 13:23:05;;;;;;;0.20;0.20;;;40.80;45.60;;;;;;4399567;32;20124;-74
2022/08/04 13:25:32;;;;;;;4.90;1.00;;;40.90;44.80;;;;;;4398910;32;20065;-74
2022/08/04 13:28:01;;;;;;;0.30;0.30;;;40.80;45.30;;;;;;4398614;32;20097;-74
2022/08/04 13:30:29;;;;;;;0.50;0.50;;;40.30;45.30;;;;;;4398221;32;20066;-74
2022/08/04 13:32:58;;;;;;;0.10;0.10;;;40.40;45.60;;;;;;4398890;32;20135;-74
2022/08/04 13:35:25;;;;;;;0.30;0.30;;;40.40;45.20;;;;;;4398763;32;20066;-73
2022/08/04 13:37:53;;;;;;;0.37;0.30;;;40.30;46.00;;;;;;4398907;32;20512;-73
2022/08/04 13:40:22;;;;;;;0.15;0.15;;;40.80;45.40;;;;;;4387802;32;20063;-74
2022/08/04 13:42:51;;;;;;;0.17;0.17;;;40.50;45.20;;;;;;4398823;32;20082;-74
2022/08/04 13:45:21;;;;;;;0.28;0.28;;;40.40;44.70;;;;;;4398263;32;20070;-74
2022/08/04 13:47:48;;;;;;;0.22;0.22;;;40.70;45.40;;;;;;4398415;32;20130;-76
2022/08/04 13:50:17;;;;;;;0.20;0.20;;;40.40;45.60;;;;;;4398497;32;20070;-72
2022/08/04 13:52:44;;;;;;;0.32;0.32;;;40.40;44.80;;;;;;4398265;32;20120;-73
2022/08/04 13:55:35;;;;;;;0.17;0.17;;;41.00;44.90;;;;;;4407141;32;20474;-74
2022/08/04 13:58:07;;;;;;;0.30;0.30;;;41.40;44.70;;;;;;4411440;32;20066;-74
2022/08/04 14:00:45;;;;;;;0.20;0.20;;;41.90;43.90;;;;;;4398098;32;20074;-74
2022/08/04 14:03:20;;;;;;;0.10;0.10;;;41.40;44.70;;;;;;4398221;32;20117;-74
2022/08/04 14:06:10;;;;;;;0.13;0.13;;;41.80;43.40;;;;;;4398319;32;20077;-74
2022/08/04 14:08:50;;;;;;;0.10;0.10;;;42.20;43.50;;;;;;4398155;32;20070;-74